sensor_id;sensor_type;location;lat;lon;timestamp;temperature;humidity
54461;DHT22;40371;49.414;11.010;2022-09-06T00:01:26;18.40;99.90
54461;DHT22;40371;49.414;11.010;2022-09-06T00:03:52;18.30;99.90
54461;DHT22;40371;49.414;11.010;2022-09-06T00:06:19;18.30;99.90
54461;DHT22;40371;49.414;11.010;2022-09-06T00:08:45;18.50;99.90
54461;DHT22;40371;49.414;11.010;2022-09-06T00:11:12;18.50;99.90
54461;DHT22;40371;49.414;11.010;2022-09-06T00:13:38;18.50;99.90
54461;DHT22;40371;49.414;11.010;2022-09-06T00:16:06;18.60;99.90
54461;DHT22;40371;49.414;11.010;2022-09-06T00:18:32;18.50;99.90
54461;DHT22;40371;49.414;11.010;2022-09-06T00:20:58;18.50;99.90
54461;DHT22;40371;49.414;11.010;2022-09-06T00:23:23;18.30;99.90
54461;DHT22;40371;49.414;11.010;2022-09-06T00:25:49;18.40;99.90
54461;DHT22;40371;49.414;11.010;2022-09-06T00:28:15;18.40;99.90
54461;DHT22;40371;49.414;11.010;2022-09-06T00:30:40;18.30;99.90
54461;DHT22;40371;49.414;11.010;2022-09-06T00:33:06;18.30;99.90
54461;DHT22;40371;49.414;11.010;2022-09-06T00:35:32;18.30;99.90
54461;DHT22;40371;49.414;11.010;2022-09-06T00:37:59;18.30;99.90
54461;DHT22;40371;49.414;11.010;2022-09-06T00:40:26;18.30;99.90
54461;DHT22;40371;49.414;11.010;2022-09-06T00:42:54;18.30;99.90
54461;DHT22;40371;49.414;11.010;2022-09-06T00:45:21;18.30;99.90
54461;DHT22;40371;49.414;11.010;2022-09-06T00:47:48;18.30;99.90
54461;DHT22;40371;49.414;11.010;2022-09-06T00:50:15;18.40;99.90
54461;DHT22;40371;49.414;11.010;2022-09-06T00:52:44;18.40;99.90
54461;DHT22;40371;49.414;11.010;2022-09-06T00:55:11;18.40;99.90
54461;DHT22;40371;49.414;11.010;2022-09-06T00:57:38;18.30;99.90
54461;DHT22;40371;49.414;11.010;2022-09-06T01:00:06;18.20;99.90
54461;DHT22;40371;49.414;11.010;2022-09-06T01:02:32;18.20;99.90
54461;DHT22;40371;49.414;11.010;2022-09-06T01:04:58;18.20;99.90
54461;DHT22;40371;49.414;11.010;2022-09-06T01:07:57;18.30;99.90
54461;DHT22;40371;49.414;11.010;2022-09-06T01:10:41;18.40;99.90
54461;DHT22;40371;49.414;11.010;2022-09-06T01:30:06;17.90;99.90
54461;DHT22;40371;49.414;11.010;2022-09-06T01:32:55;18.10;99.90
54461;DHT22;40371;49.414;11.010;2022-09-06T01:36:16;18.10;99.90
54461;DHT22;40371;49.414;11.010;2022-09-06T01:38:21;17.90;99.90
54461;DHT22;40371;49.414;11.010;2022-09-06T01:40:47;17.90;99.90
54461;DHT22;40371;49.414;11.010;2022-09-06T01:43:19;18.00;99.90
54461;DHT22;40371;49.414;11.010;2022-09-06T01:51:44;18.30;99.90
54461;DHT22;40371;49.414;11.010;2022-09-06T02:00:15;18.30;99.90
54461;DHT22;40371;49.414;11.010;2022-09-06T02:05:39;17.90;99.90
54461;DHT22;40371;49.414;11.010;2022-09-06T02:08:13;17.70;99.90
54461;DHT22;40371;49.414;11.010;2022-09-06T02:10:58;17.60;99.90
54461;DHT22;40371;49.414;11.010;2022-09-06T02:13:29;17.70;99.90
54461;DHT22;40371;49.414;11.010;2022-09-06T02:16:01;17.70;99.90
54461;DHT22;40371;49.414;11.010;2022-09-06T02:19:07;17.80;99.90
54461;DHT22;40371;49.414;11.010;2022-09-06T02:21:37;17.90;99.90
54461;DHT22;40371;49.414;11.010;2022-09-06T02:24:08;18.00;99.90
54461;DHT22;40371;49.414;11.010;2022-09-06T02:26:37;17.90;99.90
54461;DHT22;40371;49.414;11.010;2022-09-06T02:29:05;17.90;99.90
54461;DHT22;40371;49.414;11.010;2022-09-06T02:31:43;17.90;99.90
54461;DHT22;40371;49.414;11.010;2022-09-06T02:34:13;18.00;99.90
54461;DHT22;40371;49.414;11.010;2022-09-06T02:36:39;17.90;99.90
54461;DHT22;40371;49.414;11.010;2022-09-06T02:39:05;17.80;99.90
54461;DHT22;40371;49.414;11.010;2022-09-06T02:41:32;17.90;99.90
54461;DHT22;40371;49.414;11.010;2022-09-06T02:43:58;17.80;99.90
54461;DHT22;40371;49.414;11.010;2022-09-06T02:46:24;17.90;99.90
54461;DHT22;40371;49.414;11.010;2022-09-06T02:48:50;17.90;99.90
54461;DHT22;40371;49.414;11.010;2022-09-06T02:51:16;17.90;99.90
54461;DHT22;40371;49.414;11.010;2022-09-06T02:53:41;17.90;99.90
54461;DHT22;40371;49.414;11.010;2022-09-06T02:56:07;17.80;99.90
54461;DHT22;40371;49.414;11.010;2022-09-06T02:58:33;17.70;99.90
54461;DHT22;40371;49.414;11.010;2022-09-06T03:00:59;17.70;99.90
54461;DHT22;40371;49.414;11.010;2022-09-06T03:03:25;17.60;99.90
54461;DHT22;40371;49.414;11.010;2022-09-06T03:05:52;17.40;99.90
54461;DHT22;40371;49.414;11.010;2022-09-06T03:08:19;17.40;99.90
54461;DHT22;40371;49.414;11.010;2022-09-06T03:10:48;17.30;99.90
54461;DHT22;40371;49.414;11.010;2022-09-06T03:13:14;17.40;99.90
54461;DHT22;40371;49.414;11.010;2022-09-06T03:15:40;17.50;99.90
54461;DHT22;40371;49.414;11.010;2022-09-06T03:18:05;17.50;99.90
54461;DHT22;40371;49.414;11.010;2022-09-06T03:20:31;17.50;99.90
54461;DHT22;40371;49.414;11.010;2022-09-06T03:22:56;17.50;99.90
54461;DHT22;40371;49.414;11.010;2022-09-06T03:25:22;17.40;99.90
54461;DHT22;40371;49.414;11.010;2022-09-06T03:27:48;17.50;99.90
54461;DHT22;40371;49.414;11.010;2022-09-06T03:30:14;17.30;99.90
54461;DHT22;40371;49.414;11.010;2022-09-06T03:32:39;17.20;99.90
54461;DHT22;40371;49.414;11.010;2022-09-06T03:35:05;17.10;99.90
54461;DHT22;40371;49.414;11.010;2022-09-06T03:37:32;17.00;99.90
54461;DHT22;40371;49.414;11.010;2022-09-06T03:39:58;17.00;99.90
54461;DHT22;40371;49.414;11.010;2022-09-06T03:42:24;17.10;99.90
54461;DHT22;40371;49.414;11.010;2022-09-06T03:44:51;17.10;99.90
54461;DHT22;40371;49.414;11.010;2022-09-06T03:47:18;17.10;99.90
54461;DHT22;40371;49.414;11.010;2022-09-06T03:49:44;17.00;99.90
54461;DHT22;40371;49.414;11.010;2022-09-06T03:52:09;17.00;99.90
54461;DHT22;40371;49.414;11.010;2022-09-06T03:54:35;17.00;99.90
54461;DHT22;40371;49.414;11.010;2022-09-06T03:57:01;17.10;99.90
54461;DHT22;40371;49.414;11.010;2022-09-06T03:59:26;17.30;99.90
54461;DHT22;40371;49.414;11.010;2022-09-06T04:01:52;17.10;99.90
54461;DHT22;40371;49.414;11.010;2022-09-06T04:04:18;17.00;99.90
54461;DHT22;40371;49.414;11.010;2022-09-06T04:06:43;16.80;99.90
54461;DHT22;40371;49.414;11.010;2022-09-06T04:09:09;16.80;99.90
54461;DHT22;40371;49.414;11.010;2022-09-06T04:11:34;16.70;99.90
54461;DHT22;40371;49.414;11.010;2022-09-06T04:14:00;16.70;99.90
54461;DHT22;40371;49.414;11.010;2022-09-06T04:16:25;16.80;99.90
54461;DHT22;40371;49.414;11.010;2022-09-06T04:18:51;16.80;99.90
54461;DHT22;40371;49.414;11.010;2022-09-06T04:21:17;16.90;99.90
54461;DHT22;40371;49.414;11.010;2022-09-06T04:23:43;16.90;99.90
54461;DHT22;40371;49.414;11.010;2022-09-06T04:26:08;17.00;99.90
54461;DHT22;40371;49.414;11.010;2022-09-06T04:28:34;17.10;99.90
54461;DHT22;40371;49.414;11.010;2022-09-06T04:31:01;17.10;99.90
54461;DHT22;40371;49.414;11.010;2022-09-06T04:33:28;17.10;99.90
54461;DHT22;40371;49.414;11.010;2022-09-06T04:35:55;17.20;99.90
54461;DHT22;40371;49.414;11.010;2022-09-06T04:38:23;17.30;99.90
54461;DHT22;40371;49.414;11.010;2022-09-06T04:40:48;17.20;99.90
54461;DHT22;40371;49.414;11.010;2022-09-06T04:43:14;17.20;99.90
54461;DHT22;40371;49.414;11.010;2022-09-06T04:45:40;17.20;99.90
54461;DHT22;40371;49.414;11.010;2022-09-06T04:48:06;17.30;99.90
54461;DHT22;40371;49.414;11.010;2022-09-06T04:50:32;17.30;99.90
54461;DHT22;40371;49.414;11.010;2022-09-06T04:53:04;17.30;99.90
54461;DHT22;40371;49.414;11.010;2022-09-06T04:55:30;17.20;99.90
54461;DHT22;40371;49.414;11.010;2022-09-06T04:57:57;17.30;99.90
54461;DHT22;40371;49.414;11.010;2022-09-06T05:00:26;17.30;99.90
54461;DHT22;40371;49.414;11.010;2022-09-06T05:02:52;17.30;99.90
54461;DHT22;40371;49.414;11.010;2022-09-06T05:05:17;17.00;99.90
54461;DHT22;40371;49.414;11.010;2022-09-06T05:07:43;16.80;99.90
54461;DHT22;40371;49.414;11.010;2022-09-06T05:10:08;16.60;99.90
54461;DHT22;40371;49.414;11.010;2022-09-06T05:12:34;16.60;99.90
54461;DHT22;40371;49.414;11.010;2022-09-06T05:14:59;16.80;99.90
54461;DHT22;40371;49.414;11.010;2022-09-06T05:17:25;17.10;99.90
54461;DHT22;40371;49.414;11.010;2022-09-06T05:19:51;17.30;99.90
54461;DHT22;40371;49.414;11.010;2022-09-06T05:22:16;17.40;99.90
54461;DHT22;40371;49.414;11.010;2022-09-06T05:24:42;17.40;99.90
54461;DHT22;40371;49.414;11.010;2022-09-06T05:27:08;17.60;99.90
54461;DHT22;40371;49.414;11.010;2022-09-06T05:29:33;17.60;99.90
54461;DHT22;40371;49.414;11.010;2022-09-06T05:31:59;17.70;99.90
54461;DHT22;40371;49.414;11.010;2022-09-06T05:34:25;17.70;99.90
54461;DHT22;40371;49.414;11.010;2022-09-06T05:36:50;17.70;99.90
54461;DHT22;40371;49.414;11.010;2022-09-06T05:39:16;17.80;99.90
54461;DHT22;40371;49.414;11.010;2022-09-06T05:41:45;17.90;99.90
54461;DHT22;40371;49.414;11.010;2022-09-06T05:44:11;18.00;99.90
54461;DHT22;40371;49.414;11.010;2022-09-06T05:46:45;17.90;99.90
54461;DHT22;40371;49.414;11.010;2022-09-06T05:49:12;18.00;99.90
54461;DHT22;40371;49.414;11.010;2022-09-06T05:51:38;18.10;99.90
54461;DHT22;40371;49.414;11.010;2022-09-06T05:54:04;18.20;99.90
54461;DHT22;40371;49.414;11.010;2022-09-06T05:56:29;18.00;99.90
54461;DHT22;40371;49.414;11.010;2022-09-06T05:58:55;18.00;99.90
54461;DHT22;40371;49.414;11.010;2022-09-06T06:01:28;18.20;99.90
54461;DHT22;40371;49.414;11.010;2022-09-06T06:03:59;18.30;99.90
54461;DHT22;40371;49.414;11.010;2022-09-06T06:06:27;18.40;99.90
54461;DHT22;40371;49.414;11.010;2022-09-06T06:08:53;18.50;99.90
54461;DHT22;40371;49.414;11.010;2022-09-06T06:11:19;18.60;99.90
54461;DHT22;40371;49.414;11.010;2022-09-06T06:13:45;18.70;99.90
54461;DHT22;40371;49.414;11.010;2022-09-06T06:16:12;18.80;99.90
54461;DHT22;40371;49.414;11.010;2022-09-06T06:18:38;18.80;99.90
54461;DHT22;40371;49.414;11.010;2022-09-06T06:21:13;19.00;99.90
54461;DHT22;40371;49.414;11.010;2022-09-06T06:23:40;19.10;99.90
54461;DHT22;40371;49.414;11.010;2022-09-06T06:26:07;19.00;99.90
54461;DHT22;40371;49.414;11.010;2022-09-06T06:28:34;18.80;99.90
54461;DHT22;40371;49.414;11.010;2022-09-06T06:31:01;18.80;99.90
54461;DHT22;40371;49.414;11.010;2022-09-06T06:33:27;19.00;99.90
54461;DHT22;40371;49.414;11.010;2022-09-06T06:36:00;19.10;99.90
54461;DHT22;40371;49.414;11.010;2022-09-06T06:38:36;19.30;99.90
54461;DHT22;40371;49.414;11.010;2022-09-06T06:41:03;19.30;99.90
54461;DHT22;40371;49.414;11.010;2022-09-06T06:43:29;19.30;99.90
54461;DHT22;40371;49.414;11.010;2022-09-06T06:46:05;19.20;99.90
54461;DHT22;40371;49.414;11.010;2022-09-06T06:48:31;19.40;99.90
54461;DHT22;40371;49.414;11.010;2022-09-06T06:50:56;19.50;99.90
54461;DHT22;40371;49.414;11.010;2022-09-06T06:53:22;19.50;99.90
54461;DHT22;40371;49.414;11.010;2022-09-06T06:55:48;19.60;99.90
54461;DHT22;40371;49.414;11.010;2022-09-06T06:58:18;19.70;99.90
54461;DHT22;40371;49.414;11.010;2022-09-06T07:00:44;19.80;99.90
54461;DHT22;40371;49.414;11.010;2022-09-06T07:03:11;19.90;99.90
54461;DHT22;40371;49.414;11.010;2022-09-06T07:05:37;19.90;99.90
54461;DHT22;40371;49.414;11.010;2022-09-06T07:08:04;20.00;99.90
54461;DHT22;40371;49.414;11.010;2022-09-06T07:10:29;20.20;99.90
54461;DHT22;40371;49.414;11.010;2022-09-06T07:12:56;20.40;99.90
54461;DHT22;40371;49.414;11.010;2022-09-06T07:15:21;20.60;99.90
54461;DHT22;40371;49.414;11.010;2022-09-06T07:17:47;20.90;99.90
54461;DHT22;40371;49.414;11.010;2022-09-06T07:20:12;21.10;99.90
54461;DHT22;40371;49.414;11.010;2022-09-06T07:22:38;21.10;99.90
54461;DHT22;40371;49.414;11.010;2022-09-06T07:25:05;21.40;99.90
54461;DHT22;40371;49.414;11.010;2022-09-06T07:27:31;21.50;99.90
54461;DHT22;40371;49.414;11.010;2022-09-06T07:29:57;21.50;99.90
54461;DHT22;40371;49.414;11.010;2022-09-06T07:32:23;21.40;99.90
54461;DHT22;40371;49.414;11.010;2022-09-06T07:34:48;21.50;99.90
54461;DHT22;40371;49.414;11.010;2022-09-06T07:37:14;21.70;99.90
54461;DHT22;40371;49.414;11.010;2022-09-06T07:39:40;22.20;99.90
54461;DHT22;40371;49.414;11.010;2022-09-06T07:42:06;22.20;99.90
54461;DHT22;40371;49.414;11.010;2022-09-06T07:44:31;22.20;99.90
54461;DHT22;40371;49.414;11.010;2022-09-06T07:46:57;22.30;99.90
54461;DHT22;40371;49.414;11.010;2022-09-06T07:49:22;23.90;99.90
54461;DHT22;40371;49.414;11.010;2022-09-06T07:51:48;26.10;99.90
54461;DHT22;40371;49.414;11.010;2022-09-06T07:54:14;28.50;99.90
54461;DHT22;40371;49.414;11.010;2022-09-06T07:56:39;28.20;99.90
54461;DHT22;40371;49.414;11.010;2022-09-06T07:59:05;27.00;99.90
54461;DHT22;40371;49.414;11.010;2022-09-06T08:01:35;26.10;99.90
54461;DHT22;40371;49.414;11.010;2022-09-06T08:04:11;26.40;99.90
54461;DHT22;40371;49.414;11.010;2022-09-06T08:06:40;26.20;99.90
54461;DHT22;40371;49.414;11.010;2022-09-06T08:09:07;26.70;99.90
54461;DHT22;40371;49.414;11.010;2022-09-06T08:11:34;28.50;99.90
54461;DHT22;40371;49.414;11.010;2022-09-06T08:14:00;28.00;99.90
54461;DHT22;40371;49.414;11.010;2022-09-06T08:16:28;27.40;99.90
54461;DHT22;40371;49.414;11.010;2022-09-06T08:18:56;26.60;99.90
54461;DHT22;40371;49.414;11.010;2022-09-06T08:21:23;26.90;99.90
54461;DHT22;40371;49.414;11.010;2022-09-06T08:23:51;26.40;99.90
54461;DHT22;40371;49.414;11.010;2022-09-06T08:26:18;29.20;99.90
54461;DHT22;40371;49.414;11.010;2022-09-06T08:28:55;29.80;99.90
54461;DHT22;40371;49.414;11.010;2022-09-06T08:31:23;28.10;99.90
54461;DHT22;40371;49.414;11.010;2022-09-06T08:33:48;27.30;99.90
54461;DHT22;40371;49.414;11.010;2022-09-06T08:36:15;26.70;99.90
54461;DHT22;40371;49.414;11.010;2022-09-06T08:38:41;27.10;99.90
54461;DHT22;40371;49.414;11.010;2022-09-06T08:43:52;31.00;99.90
54461;DHT22;40371;49.414;11.010;2022-09-06T08:46:27;29.40;99.90
54461;DHT22;40371;49.414;11.010;2022-09-06T08:48:54;28.70;99.90
54461;DHT22;40371;49.414;11.010;2022-09-06T08:53:45;29.00;99.90
54461;DHT22;40371;49.414;11.010;2022-09-06T08:56:24;28.60;99.90
54461;DHT22;40371;49.414;11.010;2022-09-06T08:59:05;29.00;99.90
54461;DHT22;40371;49.414;11.010;2022-09-06T09:02:01;27.80;99.90
54461;DHT22;40371;49.414;11.010;2022-09-06T09:04:29;27.90;99.90
54461;DHT22;40371;49.414;11.010;2022-09-06T09:07:57;27.60;99.90
54461;DHT22;40371;49.414;11.010;2022-09-06T09:09:57;27.00;99.90
54461;DHT22;40371;49.414;11.010;2022-09-06T09:12:24;26.80;99.90
54461;DHT22;40371;49.414;11.010;2022-09-06T09:14:55;26.50;99.90
54461;DHT22;40371;49.414;11.010;2022-09-06T09:17:28;27.30;99.90
54461;DHT22;40371;49.414;11.010;2022-09-06T09:19:55;28.10;99.90
54461;DHT22;40371;49.414;11.010;2022-09-06T09:22:22;28.10;99.90
54461;DHT22;40371;49.414;11.010;2022-09-06T09:24:50;28.00;99.90
54461;DHT22;40371;49.414;11.010;2022-09-06T09:27:20;28.40;99.90
54461;DHT22;40371;49.414;11.010;2022-09-06T09:32:35;32.10;99.20
54461;DHT22;40371;49.414;11.010;2022-09-06T09:35:29;31.80;98.20
54461;DHT22;40371;49.414;11.010;2022-09-06T09:38:23;32.50;97.60
54461;DHT22;40371;49.414;11.010;2022-09-06T09:40:52;34.30;94.00
54461;DHT22;40371;49.414;11.010;2022-09-06T09:49:08;33.10;92.90
54461;DHT22;40371;49.414;11.010;2022-09-06T09:51:46;34.20;91.60
54461;DHT22;40371;49.414;11.010;2022-09-06T09:54:14;33.00;91.80
54461;DHT22;40371;49.414;11.010;2022-09-06T09:56:56;31.80;93.70
54461;DHT22;40371;49.414;11.010;2022-09-06T09:59:28;32.20;93.10
54461;DHT22;40371;49.414;11.010;2022-09-06T10:01:56;32.60;92.30
54461;DHT22;40371;49.414;11.010;2022-09-06T10:04:35;32.80;91.30
54461;DHT22;40371;49.414;11.010;2022-09-06T10:09:39;34.70;87.30
54461;DHT22;40371;49.414;11.010;2022-09-06T10:12:06;32.60;88.90
54461;DHT22;40371;49.414;11.010;2022-09-06T10:14:46;30.40;91.90
54461;DHT22;40371;49.414;11.010;2022-09-06T10:17:29;31.00;92.30
54461;DHT22;40371;49.414;11.010;2022-09-06T10:19:55;31.50;91.20
54461;DHT22;40371;49.414;11.010;2022-09-06T10:25:20;31.20;92.20
54461;DHT22;40371;49.414;11.010;2022-09-06T10:30:35;31.90;89.20
54461;DHT22;40371;49.414;11.010;2022-09-06T10:33:22;31.10;91.20
54461;DHT22;40371;49.414;11.010;2022-09-06T10:35:51;30.00;91.40
54461;DHT22;40371;49.414;11.010;2022-09-06T10:38:35;29.20;92.70
54461;DHT22;40371;49.414;11.010;2022-09-06T10:41:36;29.90;92.90
54461;DHT22;40371;49.414;11.010;2022-09-06T10:47:11;30.60;90.90
54461;DHT22;40371;49.414;11.010;2022-09-06T10:49:41;30.70;89.90
54461;DHT22;40371;49.414;11.010;2022-09-06T10:52:13;31.20;90.80
54461;DHT22;40371;49.414;11.010;2022-09-06T10:54:42;32.30;88.30
54461;DHT22;40371;49.414;11.010;2022-09-06T10:57:19;31.80;88.60
54461;DHT22;40371;49.414;11.010;2022-09-06T10:59:47;30.90;86.70
54461;DHT22;40371;49.414;11.010;2022-09-06T11:05:10;31.90;86.30
54461;DHT22;40371;49.414;11.010;2022-09-06T11:07:44;31.20;85.40
54461;DHT22;40371;49.414;11.010;2022-09-06T11:10:23;30.90;86.60
54461;DHT22;40371;49.414;11.010;2022-09-06T11:13:15;31.30;84.90
54461;DHT22;40371;49.414;11.010;2022-09-06T11:15:43;31.20;85.20
54461;DHT22;40371;49.414;11.010;2022-09-06T11:21:19;31.10;86.60
54461;DHT22;40371;49.414;11.010;2022-09-06T11:29:58;30.50;85.80
54461;DHT22;40371;49.414;11.010;2022-09-06T11:35:09;31.10;86.40
54461;DHT22;40371;49.414;11.010;2022-09-06T11:37:45;30.70;86.40
54461;DHT22;40371;49.414;11.010;2022-09-06T11:40:23;31.80;86.20
54461;DHT22;40371;49.414;11.010;2022-09-06T11:45:37;32.20;82.40
54461;DHT22;40371;49.414;11.010;2022-09-06T11:53:24;31.80;84.40
54461;DHT22;40371;49.414;11.010;2022-09-06T11:56:10;32.40;81.90
54461;DHT22;40371;49.414;11.010;2022-09-06T12:08:42;33.90;77.30
54461;DHT22;40371;49.414;11.010;2022-09-06T12:13:55;33.00;79.20
54461;DHT22;40371;49.414;11.010;2022-09-06T12:16:21;32.80;80.70
54461;DHT22;40371;49.414;11.010;2022-09-06T12:21:39;31.80;82.20
54461;DHT22;40371;49.414;11.010;2022-09-06T12:27:13;31.10;84.70
54461;DHT22;40371;49.414;11.010;2022-09-06T12:29:57;30.80;85.90
54461;DHT22;40371;49.414;11.010;2022-09-06T12:32:35;30.80;85.40
54461;DHT22;40371;49.414;11.010;2022-09-06T12:35:04;30.70;85.00
54461;DHT22;40371;49.414;11.010;2022-09-06T12:37:35;30.50;85.20
54461;DHT22;40371;49.414;11.010;2022-09-06T12:40:04;30.30;85.70
54461;DHT22;40371;49.414;11.010;2022-09-06T12:42:32;30.40;86.20
54461;DHT22;40371;49.414;11.010;2022-09-06T12:45:02;30.50;85.60
54461;DHT22;40371;49.414;11.010;2022-09-06T12:47:31;30.40;86.90
54461;DHT22;40371;49.414;11.010;2022-09-06T12:50:12;30.40;87.00
54461;DHT22;40371;49.414;11.010;2022-09-06T12:55:21;30.00;88.00
54461;DHT22;40371;49.414;11.010;2022-09-06T12:57:49;29.70;87.50
54461;DHT22;40371;49.414;11.010;2022-09-06T13:00:16;29.50;88.50
54461;DHT22;40371;49.414;11.010;2022-09-06T13:02:51;29.50;89.90
54461;DHT22;40371;49.414;11.010;2022-09-06T13:05:19;29.40;88.60
54461;DHT22;40371;49.414;11.010;2022-09-06T13:07:49;29.60;89.80
54461;DHT22;40371;49.414;11.010;2022-09-06T13:10:18;29.50;90.00
54461;DHT22;40371;49.414;11.010;2022-09-06T13:12:45;29.40;90.00
54461;DHT22;40371;49.414;11.010;2022-09-06T13:15:27;29.30;90.20
54461;DHT22;40371;49.414;11.010;2022-09-06T13:18:17;29.30;90.00
54461;DHT22;40371;49.414;11.010;2022-09-06T13:20:41;29.30;89.30
54461;DHT22;40371;49.414;11.010;2022-09-06T13:23:11;29.40;89.10
54461;DHT22;40371;49.414;11.010;2022-09-06T13:25:48;29.60;89.10
54461;DHT22;40371;49.414;11.010;2022-09-06T13:28:28;29.50;88.80
54461;DHT22;40371;49.414;11.010;2022-09-06T13:31:18;29.70;88.90
54461;DHT22;40371;49.414;11.010;2022-09-06T13:33:57;29.80;88.70
54461;DHT22;40371;49.414;11.010;2022-09-06T13:36:28;29.80;88.30
54461;DHT22;40371;49.414;11.010;2022-09-06T13:38:56;29.70;88.50
54461;DHT22;40371;49.414;11.010;2022-09-06T13:43:59;29.40;88.30
54461;DHT22;40371;49.414;11.010;2022-09-06T13:46:24;29.20;89.60
54461;DHT22;40371;49.414;11.010;2022-09-06T13:48:54;29.20;90.10
54461;DHT22;40371;49.414;11.010;2022-09-06T13:51:20;29.40;89.20
54461;DHT22;40371;49.414;11.010;2022-09-06T13:53:46;29.40;88.70
54461;DHT22;40371;49.414;11.010;2022-09-06T13:56:11;29.40;88.60
54461;DHT22;40371;49.414;11.010;2022-09-06T13:58:37;29.40;89.20
54461;DHT22;40371;49.414;11.010;2022-09-06T14:01:04;29.50;89.20
54461;DHT22;40371;49.414;11.010;2022-09-06T14:03:33;29.40;89.10
54461;DHT22;40371;49.414;11.010;2022-09-06T14:05:59;29.50;88.80
54461;DHT22;40371;49.414;11.010;2022-09-06T14:08:26;29.60;88.90
54461;DHT22;40371;49.414;11.010;2022-09-06T14:10:52;29.60;89.40
54461;DHT22;40371;49.414;11.010;2022-09-06T14:13:19;29.60;87.60
54461;DHT22;40371;49.414;11.010;2022-09-06T14:15:47;29.60;87.80
54461;DHT22;40371;49.414;11.010;2022-09-06T14:18:13;29.60;87.70
54461;DHT22;40371;49.414;11.010;2022-09-06T14:20:39;29.60;88.20
54461;DHT22;40371;49.414;11.010;2022-09-06T14:23:06;29.40;88.20
54461;DHT22;40371;49.414;11.010;2022-09-06T14:25:36;29.30;88.70
54461;DHT22;40371;49.414;11.010;2022-09-06T14:28:05;29.10;87.60
54461;DHT22;40371;49.414;11.010;2022-09-06T14:30:30;28.80;88.10
54461;DHT22;40371;49.414;11.010;2022-09-06T14:32:56;28.90;88.40
54461;DHT22;40371;49.414;11.010;2022-09-06T14:35:22;29.00;88.30
54461;DHT22;40371;49.414;11.010;2022-09-06T14:37:48;29.10;88.90
54461;DHT22;40371;49.414;11.010;2022-09-06T14:40:14;29.10;89.30
54461;DHT22;40371;49.414;11.010;2022-09-06T14:42:40;29.10;89.20
54461;DHT22;40371;49.414;11.010;2022-09-06T14:45:06;29.10;89.30
54461;DHT22;40371;49.414;11.010;2022-09-06T14:47:31;29.00;89.00
54461;DHT22;40371;49.414;11.010;2022-09-06T14:49:58;29.10;89.30
54461;DHT22;40371;49.414;11.010;2022-09-06T14:52:24;29.20;89.40
54461;DHT22;40371;49.414;11.010;2022-09-06T14:54:52;29.00;89.00
54461;DHT22;40371;49.414;11.010;2022-09-06T14:57:17;29.00;89.40
54461;DHT22;40371;49.414;11.010;2022-09-06T14:59:43;29.00;89.40
54461;DHT22;40371;49.414;11.010;2022-09-06T15:02:09;29.00;89.20
54461;DHT22;40371;49.414;11.010;2022-09-06T15:04:34;29.00;87.40
54461;DHT22;40371;49.414;11.010;2022-09-06T15:07:00;28.90;86.90
54461;DHT22;40371;49.414;11.010;2022-09-06T15:09:26;28.90;87.20
54461;DHT22;40371;49.414;11.010;2022-09-06T15:11:52;28.80;86.90
54461;DHT22;40371;49.414;11.010;2022-09-06T15:14:26;28.80;86.60
54461;DHT22;40371;49.414;11.010;2022-09-06T15:16:55;28.80;87.10
54461;DHT22;40371;49.414;11.010;2022-09-06T15:19:27;28.90;86.70
54461;DHT22;40371;49.414;11.010;2022-09-06T15:21:54;28.70;85.70
54461;DHT22;40371;49.414;11.010;2022-09-06T15:24:20;28.60;85.60
54461;DHT22;40371;49.414;11.010;2022-09-06T15:26:46;28.60;86.50
54461;DHT22;40371;49.414;11.010;2022-09-06T15:29:12;28.70;87.00
54461;DHT22;40371;49.414;11.010;2022-09-06T15:31:39;28.70;86.10
54461;DHT22;40371;49.414;11.010;2022-09-06T15:34:05;28.70;86.50
54461;DHT22;40371;49.414;11.010;2022-09-06T15:36:32;28.70;86.80
54461;DHT22;40371;49.414;11.010;2022-09-06T15:38:59;28.70;86.60
54461;DHT22;40371;49.414;11.010;2022-09-06T15:41:28;28.70;86.90
54461;DHT22;40371;49.414;11.010;2022-09-06T15:43:56;28.70;86.80
54461;DHT22;40371;49.414;11.010;2022-09-06T15:49:11;28.70;87.10
54461;DHT22;40371;49.414;11.010;2022-09-06T15:51:38;28.60;86.40
54461;DHT22;40371;49.414;11.010;2022-09-06T15:54:05;28.60;87.20
54461;DHT22;40371;49.414;11.010;2022-09-06T15:56:31;28.60;87.30
54461;DHT22;40371;49.414;11.010;2022-09-06T15:58:57;28.60;86.10
54461;DHT22;40371;49.414;11.010;2022-09-06T16:01:24;28.60;86.30
54461;DHT22;40371;49.414;11.010;2022-09-06T16:03:57;28.60;86.20
54461;DHT22;40371;49.414;11.010;2022-09-06T16:06:33;28.60;86.10
54461;DHT22;40371;49.414;11.010;2022-09-06T16:09:11;28.60;85.10
54461;DHT22;40371;49.414;11.010;2022-09-06T16:11:39;28.60;85.40
54461;DHT22;40371;49.414;11.010;2022-09-06T16:14:07;28.60;86.60
54461;DHT22;40371;49.414;11.010;2022-09-06T16:16:34;28.50;87.20
54461;DHT22;40371;49.414;11.010;2022-09-06T16:19:00;28.50;87.20
54461;DHT22;40371;49.414;11.010;2022-09-06T16:21:29;28.40;87.40
54461;DHT22;40371;49.414;11.010;2022-09-06T16:24:08;28.40;87.50
54461;DHT22;40371;49.414;11.010;2022-09-06T16:26:39;28.40;87.00
54461;DHT22;40371;49.414;11.010;2022-09-06T16:29:06;28.40;86.50
54461;DHT22;40371;49.414;11.010;2022-09-06T16:31:32;28.40;86.60
54461;DHT22;40371;49.414;11.010;2022-09-06T16:34:01;28.40;87.00
54461;DHT22;40371;49.414;11.010;2022-09-06T16:36:27;28.30;86.80
54461;DHT22;40371;49.414;11.010;2022-09-06T16:38:53;28.40;86.90
54461;DHT22;40371;49.414;11.010;2022-09-06T16:43:46;28.30;86.90
54461;DHT22;40371;49.414;11.010;2022-09-06T16:46:14;28.30;86.60
54461;DHT22;40371;49.414;11.010;2022-09-06T16:48:40;28.30;86.80
54461;DHT22;40371;49.414;11.010;2022-09-06T16:51:16;28.20;86.80
54461;DHT22;40371;49.414;11.010;2022-09-06T16:53:44;28.20;87.30
54461;DHT22;40371;49.414;11.010;2022-09-06T16:56:13;28.10;86.60
54461;DHT22;40371;49.414;11.010;2022-09-06T16:58:40;28.10;87.80
54461;DHT22;40371;49.414;11.010;2022-09-06T17:01:07;28.10;88.30
54461;DHT22;40371;49.414;11.010;2022-09-06T17:03:37;28.00;87.90
54461;DHT22;40371;49.414;11.010;2022-09-06T17:06:05;27.90;88.00
54461;DHT22;40371;49.414;11.010;2022-09-06T17:08:32;27.80;89.20
54461;DHT22;40371;49.414;11.010;2022-09-06T17:11:03;27.80;89.00
54461;DHT22;40371;49.414;11.010;2022-09-06T17:13:30;27.70;89.40
54461;DHT22;40371;49.414;11.010;2022-09-06T17:15:57;27.60;90.00